Pound, WI (54161)

1:34 AM CDT on August 02, 2014 (GMT -0500)
Mountain (KWIMOUNT3) Elev 925 ft | 45.17 °N, 88.44 °W | Change Station

Current weather conditions updated 19 seconds ago

Clear
Clear
60.7 °F
Feels Like 60.7 °F
N
0.0
Wind Variable Wind from NNE
Gusts 4.0 mph

Today is forecast to be nearly the same temperature as yesterday.

Today
High -- | Low -- °F
--% Chance of Precip.
Yesterday
High -- | Low -- °F
Precip. -- in
5:39 AM 8:18 PM
Waxing Crescent, 33% visible
Pressure 30.08 in
Visibility 3.0 miles
Clouds Clear
Dew Point 60 °F
Humidity 96%
Rainfall 0.00 in
Snow Depth Not available.
UV 0 out of 12
Pollen 7.30 out of 12
Air Quality Not available.
Flu Activity Not available.
METAR KOCQ 020615Z AUTO 00000KT 3SM CLR 14/14 A3008 RMK AO1 T01390139

More Conditions Fewer Conditions

Pressure 30.08 in
Visibility 3.0 miles
Clouds Clear
Dew Point 60 °F
Humidity 96%
Rainfall 0.00 in
Snow Depth Not available.
UV 0 out of 12
Pollen 7.30 out of 12
Air Quality Not available.
Flu Activity Not available.
METAR KOCQ 020615Z AUTO 00000KT 3SM CLR 14/14 A3008 RMK AO1 T01390139

More Conditions Fewer Conditions

10-Day Weather Forecast

Almanac

Astronomy

Aug. 02, 2014 Rise Set
Actual Time 5:39 AM CDT 8:18 PM CDT
Civil Twilight 5:05 AM CDT 8:51 PM CDT
Nautical Twilight 4:22 AM CDT 9:34 PM CDT
Astronomical Twilight 3:33 AM CDT 10:22 PM CDT
Moon 12:20 PM CDT 11:16 PM CDT
Length of Visible Light 15h 46m
Length of Day
14h 39m
Tomorrow will be 2m 29s shorter.
Waxing Crescent, 33% of the Moon is Illuminated
Today
Waxing Crescent
Aug 3
First Quarter
Aug 10
Full
Aug 17
Last Quarter
Aug 25
New

Today's Extremes

State Highs State Lows

Community

WunderPhotos

Upload Photos

1,739,830 photos uploaded!

Nearby

Snow Depth

Station Depth Elevation
No new snow has been reported.

Earthquake Activity

City Distance Mag. Time & Date
No recent earthquake activity has been reported nearby.
Minimum magnitude displayed is 2.5.

Coastal Water Temperatures

Place Temperature
No Stations Reporting

Nearby Weather Stations

Station Location Temp. Dew Point Humidity Wind Precip. Elev Updated Type
Mountain, Mountain, WI 60.7 °F 60 °F 96% NNE  at  0.0 mph 0.00 in / hr 925 ft 1:34 AM CDT Rapid Fire
Lakewood, WI 61.5 °F 57 °F 86% NE  at  0.0 mph 0.00 in / hr 1219 ft 1:30 AM CDT Normal
Pine Ridge Lake, Lakewood, WI 59.9 °F 59 °F 95% ESE  at  0.0 mph 0.00 in / hr 1266 ft 1:22 AM CDT Normal
Athelstane Township, Athelstane, WI 57.7 °F 52 °F 80% SE  at  0.0 mph 0.00 in / hr 966 ft 1:34 AM CDT Rapid Fire

Show More Stations Show Fewer Stations